Hurstpierpoint, United Kingdom
Current Conditions -  °F | °C
As of 5:20 PM on Wednesday 26 Nov 2014 (Local Time) from EGKA Reporting Station
Haze Haze  
Wind Chill: 10°   Ceiling: 300
Heat Index: 10°   Visibility: 2.8mi
Dew Point:   Wind: 8mph
Humidity: 94%   Direction: 360°N
Pressure: 29.8"   Gusts: NA
Location:  50.93°N, 0.18°W
Report Text: EGKA 261720Z 36007KT 4500 1600N BR BKN003 10/09 Q1009
Loading
Personal Weather Stations






























Interactive Weather Map New forecast layout! Learn more

10-Day Weather Forecast

Advertisements
Track Severe Weather on mobile